Time;durP1;ratioP1;P1;durP2;ratioP2;P2;SDS_P1;SDS_P2;PMS_P1;PMS_P2;Temp;Humidity;BMP_temperature;BMP_pressure;BME280_temperature;BME280_humidity;BME280_pressure;Samples;Min_cycle;Max_cycle;Signal;HPM_P1;HPM_P2
2022/10/16 00:02:07;;;;;;;2.40;1.30;;;;;;;14.42;100.00;100209.59;5177883;28;20018;-73
2022/10/16 00:04:37;;;;;;;5.32;1.30;;;;;;;14.37;100.00;100211.59;5177036;28;20117;-73
2022/10/16 00:07:07;;;;;;;2.63;1.20;;;;;;;14.34;100.00;100214.41;5181912;28;20507;-73
2022/10/16 00:09:37;;;;;;;3.97;1.35;;;;;;;14.29;100.00;100208.59;5181769;28;20053;-73
2022/10/16 00:12:08;;;;;;;3.45;1.10;;;;;;;14.29;100.00;100219.09;5164579;28;20079;-73
2022/10/16 00:14:40;;;;;;;1.73;1.10;;;;;;;14.29;100.00;100213.84;5178150;28;20168;-73
2022/10/16 00:17:11;;;;;;;4.00;1.10;;;;;;;14.43;100.00;100216.53;5181522;28;20037;-73
2022/10/16 00:19:41;;;;;;;4.05;1.10;;;;;;;14.34;100.00;100217.03;5179545;28;20388;-73
2022/10/16 00:22:11;;;;;;;1.20;0.88;;;;;;;14.43;100.00;100216.53;5179631;28;20128;-73
2022/10/16 00:24:41;;;;;;;3.80;0.98;;;;;;;14.33;100.00;100220.59;5178076;28;20041;-73
2022/10/16 00:27:15;;;;;;;4.60;1.20;;;;;;;14.33;100.00;100224.09;5178957;28;20036;-73
2022/10/16 00:29:50;;;;;;;2.03;1.10;;;;;;;14.34;100.00;100224.94;5153183;28;20034;-73
2022/10/16 00:32:20;;;;;;;1.40;1.00;;;;;;;14.39;100.00;100225.53;5176573;28;20361;-73
2022/10/16 00:34:51;;;;;;;3.88;1.20;;;;;;;14.39;100.00;100220.28;5173746;28;20038;-73
2022/10/16 00:37:21;;;;;;;2.88;1.08;;;;;;;14.33;100.00;100226.72;5180970;28;20184;-73
2022/10/16 00:39:51;;;;;;;1.42;0.90;;;;;;;14.33;100.00;100224.09;5181137;28;20104;-73
2022/10/16 00:42:22;;;;;;;3.25;1.20;;;;;;;14.32;100.00;100226.81;5181488;28;20438;-73
2022/10/16 00:44:57;;;;;;;2.50;1.02;;;;;;;14.31;100.00;100235.63;5181768;28;20041;-73
2022/10/16 00:47:30;;;;;;;1.30;1.02;;;;;;;14.34;100.00;100232.81;5180804;28;20033;-73
2022/10/16 00:50:12;;;;;;;2.45;1.00;;;;;;;14.31;100.00;100222.47;5181254;28;20034;-72
2022/10/16 00:52:46;;;;;;;1.90;0.90;;;;;;;14.23;100.00;100243.09;5163005;28;20026;-72
2022/10/16 00:55:17;;;;;;;3.92;1.17;;;;;;;14.21;100.00;100237.91;5172914;28;20030;-73
2022/10/16 00:57:49;;;;;;;2.22;1.23;;;;;;;14.21;100.00;100247.56;5180446;28;20021;-73
2022/10/16 01:00:25;;;;;;;1.35;0.90;;;;;;;14.21;100.00;100239.69;5195606;22;20046;-77
2022/10/16 01:02:58;;;;;;;1.48;0.90;;;;;;;14.19;100.00;100245.06;5174370;28;20079;-76
2022/10/16 01:05:54;;;;;;;1.63;0.95;;;;;;;14.18;100.00;100253.00;5175947;28;20036;-77
2022/10/16 01:08:34;;;;;;;2.03;1.20;;;;;;;14.22;100.00;100258.00;5177050;28;20032;-76
2022/10/16 01:11:11;;;;;;;1.55;1.00;;;;;;;14.18;100.00;100259.13;5180770;28;20030;-76
2022/10/16 01:13:48;;;;;;;3.88;1.20;;;;;;;14.20;100.00;100259.03;5176972;28;20037;-77
2022/10/16 01:16:55;;;;;;;4.43;1.02;;;;;;;14.21;100.00;100248.44;5175922;28;20072;-77
2022/10/16 01:19:54;;;;;;;5.22;1.10;;;;;;;14.20;100.00;100269.53;5158530;28;20108;-77
2022/10/16 01:22:37;;;;;;;3.05;1.10;;;;;;;14.17;100.00;100272.34;5175524;28;20040;-77
2022/10/16 01:25:25;;;;;;;2.42;1.00;;;;;;;14.18;100.00;100258.25;5171184;28;20361;-77
2022/10/16 01:27:57;;;;;;;1.80;1.15;;;;;;;14.19;100.00;100250.31;5176962;28;20163;-77
2022/10/16 01:30:32;;;;;;;3.60;1.10;;;;;;;14.21;100.00;100263.34;5179936;28;20025;-77
2022/10/16 01:33:09;;;;;;;6.53;1.30;;;;;;;14.23;100.00;100256.25;5175250;28;20387;-77
2022/10/16 01:35:48;;;;;;;2.88;1.00;;;;;;;14.21;100.00;100261.56;5175318;28;20038;-77
2022/10/16 01:38:29;;;;;;;2.80;0.80;;;;;;;14.18;100.00;100250.38;5157316;28;20026;-77
2022/10/16 01:41:24;;;;;;;1.67;1.02;;;;;;;14.18;100.00;100251.25;5180329;28;20032;-77
2022/10/16 01:44:05;;;;;;;3.97;0.90;;;;;;;14.12;100.00;100248.91;5177193;28;20030;-77
2022/10/16 01:46:38;;;;;;;1.23;1.00;;;;;;;14.13;100.00;100255.00;5179526;28;20487;-77
2022/10/16 01:49:10;;;;;;;5.72;1.00;;;;;;;14.13;100.00;100260.28;5179633;28;20021;-77
2022/10/16 01:51:44;;;;;;;3.90;0.90;;;;;;;14.09;100.00;100261.38;5178933;28;20267;-77
2022/10/16 01:54:19;;;;;;;2.30;1.02;;;;;;;14.03;100.00;100270.44;5162042;28;20488;-77
2022/10/16 01:56:50;;;;;;;1.38;0.98;;;;;;;14.01;100.00;100266.19;5175686;28;20468;-77
2022/10/16 01:59:25;;;;;;;5.20;1.00;;;;;;;14.05;100.00;100263.31;5179049;28;20087;-77
2022/10/16 02:02:01;;;;;;;1.40;1.00;;;;;;;13.97;100.00;100265.53;5175172;28;20038;-77
2022/10/16 02:04:37;;;;;;;2.17;0.85;;;;;;;13.93;100.00;100271.84;5174812;28;20025;-77
2022/10/16 02:07:08;;;;;;;2.33;1.00;;;;;;;13.92;100.00;100287.72;5161388;28;20029;-77
2022/10/16 02:09:38;;;;;;;2.13;1.00;;;;;;;13.89;100.00;100287.88;5179566;28;20030;-77
2022/10/16 02:12:19;;;;;;;2.92;1.73;;;;;;;13.89;100.00;100286.09;5179619;28;20033;-77
2022/10/16 02:14:49;;;;;;;3.28;2.13;;;;;;;14.02;100.00;100281.03;5171673;28;20018;-77
2022/10/16 02:17:20;;;;;;;3.30;1.60;;;;;;;14.03;100.00;100282.72;5162122;28;20026;-77
2022/10/16 02:19:54;;;;;;;3.03;1.20;;;;;;;14.01;100.00;100295.09;5182841;28;20040;-77
2022/10/16 02:22:36;;;;;;;3.72;1.20;;;;;;;14.05;100.00;100299.28;5182795;28;20034;-77
2022/10/16 02:25:11;;;;;;;3.55;1.10;;;;;;;14.11;100.00;100293.69;5178636;28;20149;-77
2022/10/16 02:28:05;;;;;;;4.13;1.58;;;;;;;14.09;100.00;100290.28;5182508;28;20491;-77
2022/10/16 02:30:48;;;;;;;2.17;1.10;;;;;;;14.13;100.00;100300.56;5180216;28;20040;-76
2022/10/16 02:33:21;;;;;;;1.30;0.90;;;;;;;14.21;100.00;100310.66;5175396;28;20471;-77
2022/10/16 02:35:54;;;;;;;3.10;1.27;;;;;;;14.31;100.00;100307.47;5183274;28;20053;-77
2022/10/16 02:38:25;;;;;;;4.30;1.48;;;;;;;14.38;100.00;100311.44;5181236;28;20057;-77
2022/10/16 02:40:56;;;;;;;2.35;1.13;;;;;;;14.29;100.00;100304.06;5183378;28;20507;-76
2022/10/16 02:43:26;;;;;;;2.50;1.20;;;;;;;14.37;100.00;100306.25;5183286;28;20041;-77
2022/10/16 02:45:57;;;;;;;3.67;1.17;;;;;;;14.44;100.00;100318.16;5165465;28;20364;-77
2022/10/16 02:48:27;;;;;;;1.50;0.90;;;;;;;14.35;100.00;100309.00;5163133;28;20034;-77
2022/10/16 02:50:57;;;;;;;2.72;1.20;;;;;;;14.33;100.00;100313.50;5182771;28;20032;-77
2022/10/16 02:53:28;;;;;;;3.67;0.98;;;;;;;14.31;100.00;100314.50;5179333;28;20026;-77
2022/10/16 02:55:58;;;;;;;2.92;1.02;;;;;;;14.31;100.00;100312.72;5180742;28;20053;-77
2022/10/16 02:58:28;;;;;;;3.78;1.15;;;;;;;14.33;100.00;100315.25;5178478;28;20029;-77
2022/10/16 03:00:59;;;;;;;1.60;1.10;;;;;;;14.28;100.00;100312.03;5163625;28;20053;-77
2022/10/16 03:03:29;;;;;;;1.83;1.20;;;;;;;14.34;100.00;100324.84;5177933;28;20408;-77
2022/10/16 03:05:59;;;;;;;2.22;1.23;;;;;;;14.32;100.00;100324.94;5183630;28;20065;-77
2022/10/16 03:08:29;;;;;;;2.38;1.15;;;;;;;14.33;100.00;100315.25;5182626;28;20111;-77
2022/10/16 03:11:00;;;;;;;2.85;0.88;;;;;;;14.20;100.00;100319.47;5182773;28;20037;-77
2022/10/16 03:13:30;;;;;;;2.38;1.10;;;;;;;14.14;100.00;100325.91;5165293;28;20033;-77
2022/10/16 03:16:01;;;;;;;3.85;0.98;;;;;;;14.10;100.00;100318.25;5183051;28;20021;-77
2022/10/16 03:18:31;;;;;;;4.70;1.10;;;;;;;13.98;100.00;100314.53;5182552;28;20025;-77
2022/10/16 03:21:01;;;;;;;3.92;1.30;;;;;;;13.97;100.00;100310.19;5182915;28;20029;-77
2022/10/16 03:23:32;;;;;;;5.45;1.20;;;;;;;13.96;100.00;100294.50;5179308;28;20026;-77
2022/10/16 03:26:02;;;;;;;1.83;1.10;;;;;;;13.85;100.00;100309.97;5180599;28;20026;-76
2022/10/16 03:28:32;;;;;;;1.65;1.00;;;;;;;13.72;100.00;100311.56;5182551;28;20056;-77
2022/10/16 03:31:02;;;;;;;2.10;1.02;;;;;;;13.64;100.00;100303.22;5182783;28;20495;-77
2022/10/16 03:33:33;;;;;;;1.58;1.00;;;;;;;13.61;100.00;100300.78;5174654;28;20061;-77
2022/10/16 03:36:03;;;;;;;1.50;1.13;;;;;;;13.54;100.00;100302.03;5181037;28;20018;-77
2022/10/16 03:38:33;;;;;;;3.55;1.20;;;;;;;13.46;100.00;100294.56;5182444;28;20322;-77
2022/10/16 03:41:04;;;;;;;1.85;1.20;;;;;;;13.46;100.00;100304.19;5182745;28;20480;-77
2022/10/16 03:43:34;;;;;;;2.22;1.35;;;;;;;13.46;100.00;100302.44;5182383;28;20053;-77
2022/10/16 03:46:05;;;;;;;8.57;1.40;;;;;;;13.44;100.00;100312.13;5182112;28;20030;-75
2022/10/16 03:48:35;;;;;;;2.42;1.30;;;;;;;13.44;100.00;100309.50;5163981;28;20030;-76
2022/10/16 03:51:05;;;;;;;4.45;1.48;;;;;;;13.44;100.00;100306.88;5182605;28;20522;-77
2022/10/16 03:53:36;;;;;;;2.47;1.30;;;;;;;13.48;100.00;100312.81;5178728;28;20062;-77
2022/10/16 03:56:06;;;;;;;3.47;1.30;;;;;;;13.48;100.00;100307.56;5180569;28;20029;-77
2022/10/16 03:58:36;;;;;;;2.50;1.10;;;;;;;13.49;100.00;100309.28;5181698;28;20476;-77
2022/10/16 04:01:07;;;;;;;4.38;1.40;;;;;;;13.45;100.00;100313.00;5181745;28;20037;-77
2022/10/16 04:03:37;;;;;;;3.45;1.58;;;;;;;13.46;100.00;100317.31;5159188;28;20113;-77
2022/10/16 04:06:08;;;;;;;3.35;1.15;;;;;;;13.45;100.00;100305.97;5181927;28;20029;-77
2022/10/16 04:08:39;;;;;;;1.33;1.23;;;;;;;13.45;100.00;100310.38;5181523;28;20075;-77
2022/10/16 04:11:09;;;;;;;7.75;1.40;;;;;;;13.44;100.00;100316.53;5182317;28;20022;-77
2022/10/16 04:13:39;;;;;;;2.75;1.10;;;;;;;13.40;100.00;100315.00;5181421;28;20048;-77
2022/10/16 04:16:09;;;;;;;2.35;1.40;;;;;;;13.30;100.00;100319.88;5164387;28;20041;-77
2022/10/16 04:18:40;;;;;;;15.93;1.60;;;;;;;13.24;100.00;100329.84;5181464;28;20108;-77
2022/10/16 04:21:10;;;;;;;6.85;1.63;;;;;;;13.22;100.00;100323.81;5181963;28;20079;-76
2022/10/16 04:23:42;;;;;;;2.70;1.33;;;;;;;13.28;100.00;100327.00;5177434;28;20033;-77
2022/10/16 04:26:12;;;;;;;3.80;1.35;;;;;;;13.27;100.00;100325.25;5179925;28;20395;-76
2022/10/16 04:28:43;;;;;;;3.90;1.42;;;;;;;13.33;100.00;100327.59;5181799;28;20083;-77
2022/10/16 04:31:13;;;;;;;2.20;1.50;;;;;;;13.33;100.00;100321.47;5180980;28;20030;-77
2022/10/16 04:33:43;;;;;;;3.33;1.60;;;;;;;13.33;100.00;100329.34;5171965;28;20060;-77
2022/10/16 04:36:14;;;;;;;2.85;1.52;;;;;;;13.27;100.00;100340.19;5179782;28;20084;-77
2022/10/16 04:38:44;;;;;;;4.70;1.80;;;;;;;13.21;100.00;100341.31;5181245;28;20030;-77
2022/10/16 04:41:14;;;;;;;2.80;1.30;;;;;;;13.28;100.00;100342.75;5180984;28;20109;-77
2022/10/16 04:43:44;;;;;;;3.50;1.65;;;;;;;13.24;100.00;100335.09;5181914;28;20026;-77
2022/10/16 04:46:15;;;;;;;3.78;1.75;;;;;;;13.27;100.00;100354.13;5180589;28;20029;-76
2022/10/16 04:48:46;;;;;;;2.97;1.40;;;;;;;13.36;100.00;100355.44;5179422;28;20021;-77
2022/10/16 04:51:18;;;;;;;7.35;1.77;;;;;;;13.39;100.00;100340.41;5181253;28;20033;-77
2022/10/16 04:53:48;;;;;;;3.45;1.60;;;;;;;13.43;100.00;100330.59;5176250;28;20488;-76
2022/10/16 04:56:19;;;;;;;7.85;1.50;;;;;;;13.43;100.00;100351.59;5180736;28;20040;-77
2022/10/16 04:58:49;;;;;;;5.20;1.73;;;;;;;13.41;100.00;100346.41;5180382;28;20362;-77
2022/10/16 05:01:19;;;;;;;7.35;1.90;;;;;;;13.41;100.00;100343.78;5180275;28;20419;-77
2022/10/16 05:03:50;;;;;;;3.63;1.40;;;;;;;13.39;100.00;100331.69;5172473;28;20034;-77
2022/10/16 05:06:20;;;;;;;4.70;1.60;;;;;;;13.36;100.00;100326.56;5180541;28;20037;-77
2022/10/16 05:08:50;;;;;;;4.57;1.70;;;;;;;13.29;100.00;100333.06;5180411;28;20022;-77
2022/10/16 05:11:20;;;;;;;3.03;1.60;;;;;;;13.30;100.00;100343.50;5180578;28;20038;-77
2022/10/16 05:13:51;;;;;;;2.08;1.55;;;;;;;13.29;100.00;100347.06;5180807;28;20025;-77
2022/10/16 05:16:21;;;;;;;4.93;1.70;;;;;;;13.23;100.00;100354.38;5180184;28;20029;-75
2022/10/16 05:18:52;;;;;;;2.25;1.63;;;;;;;13.25;100.00;100352.53;5180346;28;20026;-77
2022/10/16 05:21:22;;;;;;;3.50;1.70;;;;;;;13.32;100.00;100353.91;5180461;28;20037;-77
2022/10/16 05:23:54;;;;;;;3.90;1.83;;;;;;;13.31;100.00;100374.06;5175091;28;20037;-77
2022/10/16 05:26:24;;;;;;;5.75;2.08;;;;;;;13.35;100.00;100375.63;5180140;28;20507;-77
2022/10/16 05:28:54;;;;;;;4.93;2.17;;;;;;;13.38;100.00;100366.75;5162968;28;20052;-77
2022/10/16 05:31:25;;;;;;;3.78;1.90;;;;;;;13.42;100.00;100370.91;5177410;28;20494;-77
2022/10/16 05:33:59;;;;;;;3.50;2.13;;;;;;;13.42;100.00;100373.53;5172626;28;20030;-77
2022/10/16 05:36:30;;;;;;;3.60;2.00;;;;;;;13.46;100.00;100361.94;5180073;28;20049;-77
2022/10/16 05:39:00;;;;;;;2.30;1.63;;;;;;;13.54;100.00;100354.53;5180129;28;20405;-77
2022/10/16 05:41:31;;;;;;;3.97;2.10;;;;;;;13.38;100.00;100358.88;5180182;28;20101;-77
2022/10/16 05:44:05;;;;;;;3.58;2.20;;;;;;;13.42;100.00;100373.53;5179921;28;20615;-77
2022/10/16 05:46:35;;;;;;;3.10;2.25;;;;;;;13.21;100.00;100362.31;5171638;28;20292;-77
2022/10/16 05:49:06;;;;;;;3.17;2.47;;;;;;;13.27;100.00;100366.41;5178665;28;20414;-77
2022/10/16 05:51:36;;;;;;;2.53;2.22;;;;;;;13.20;100.00;100375.53;5180098;28;20491;-77
2022/10/16 05:54:06;;;;;;;5.65;2.47;;;;;;;13.15;100.00;100393.25;5162283;28;20123;-77
2022/10/16 05:56:37;;;;;;;6.47;2.08;;;;;;;13.17;100.00;100397.53;5179278;28;20034;-77
2022/10/16 05:59:07;;;;;;;6.20;2.13;;;;;;;13.08;100.00;100408.44;5179626;28;20144;-77
2022/10/16 06:01:37;;;;;;;6.55;2.30;;;;;;;13.06;100.00;100404.22;5179399;28;20030;-77
2022/10/16 06:04:09;;;;;;;4.55;2.33;;;;;;;12.95;100.00;100406.50;5161324;28;20021;-77
2022/10/16 06:06:39;;;;;;;3.58;2.53;;;;;;;12.91;100.00;100410.16;5157386;28;20070;-77
2022/10/16 06:09:10;;;;;;;3.50;2.30;;;;;;;12.88;100.00;100420.81;5173080;28;20053;-77
2022/10/16 06:11:40;;;;;;;6.28;2.60;;;;;;;12.81;100.00;100424.63;5175683;28;20561;-77
2022/10/16 06:14:10;;;;;;;3.80;2.30;;;;;;;12.78;100.00;100419.53;5171585;28;20025;-76
2022/10/16 06:16:41;;;;;;;5.07;2.55;;;;;;;12.72;100.00;100430.31;5175426;28;20014;-77
2022/10/16 06:19:11;;;;;;;4.28;2.67;;;;;;;12.75;100.00;100424.91;5170734;28;20030;-77
2022/10/16 06:21:41;;;;;;;3.25;2.50;;;;;;;12.85;100.00;100443.69;5174095;28;20121;-77
2022/10/16 06:24:12;;;;;;;5.55;2.47;;;;;;;12.82;100.00;100447.31;5176658;28;20032;-77
2022/10/16 06:26:42;;;;;;;3.38;2.15;;;;;;;12.93;100.00;100431.09;5179053;28;20046;-77
2022/10/16 06:29:13;;;;;;;4.75;2.47;;;;;;;12.91;100.00;100431.16;5178317;28;20457;-77
2022/10/16 06:31:43;;;;;;;5.13;2.47;;;;;;;13.01;100.00;100432.44;5178646;28;20033;-76
2022/10/16 06:34:13;;;;;;;4.50;2.35;;;;;;;13.08;100.00;100425.97;5179603;28;20037;-77
2022/10/16 06:36:44;;;;;;;4.40;2.40;;;;;;;13.23;100.00;100435.75;5179149;28;20531;-77
2022/10/16 06:39:14;;;;;;;2.80;2.00;;;;;;;13.24;100.00;100440.06;5161470;28;20124;-77
2022/10/16 06:41:44;;;;;;;4.40;1.98;;;;;;;13.22;100.00;100447.16;5179921;28;20124;-76
2022/10/16 06:44:15;;;;;;;3.47;1.85;;;;;;;13.25;100.00;100449.63;5179580;28;20268;-77
2022/10/16 06:46:45;;;;;;;3.72;2.17;;;;;;;13.38;100.00;100450.75;5178988;28;20083;-77
2022/10/16 06:49:21;;;;;;;4.35;2.50;;;;;;;13.49;100.00;100451.06;5179223;28;20391;-77
2022/10/16 06:51:51;;;;;;;6.05;2.55;;;;;;;13.61;100.00;100451.28;5174724;28;20023;-77
2022/10/16 06:54:21;;;;;;;2.88;2.08;;;;;;;13.73;100.00;100455.09;5175766;28;20091;-77
2022/10/16 06:56:53;;;;;;;3.72;2.10;;;;;;;13.75;100.00;100458.50;5178030;28;20492;-77
2022/10/16 06:59:24;;;;;;;2.80;1.98;;;;;;;13.77;100.00;100462.72;5203509;22;20578;-73
2022/10/16 07:01:54;;;;;;;2.78;1.80;;;;;;;13.72;100.00;100480.50;5159904;28;20484;-73
2022/10/16 07:04:24;;;;;;;2.58;1.70;;;;;;;13.76;100.00;100486.47;5177198;28;20102;-73
2022/10/16 07:06:55;;;;;;;4.60;2.17;;;;;;;13.70;100.00;100482.34;5183103;28;20036;-74
2022/10/16 07:09:25;;;;;;;4.55;2.50;;;;;;;13.71;100.00;100483.22;5183645;28;20049;-73
2022/10/16 07:11:55;;;;;;;3.38;2.00;;;;;;;13.75;100.00;100484.75;5182279;28;20048;-73
2022/10/16 07:14:25;;;;;;;2.67;1.88;;;;;;;14.03;100.00;100483.28;5182259;28;20068;-73
2022/10/16 07:16:56;;;;;;;3.33;1.80;;;;;;;14.23;100.00;100487.56;5182947;28;20022;-73
2022/10/16 07:19:26;;;;;;;4.57;1.88;;;;;;;14.58;100.00;100489.19;5181835;28;20088;-73
2022/10/16 07:21:57;;;;;;;3.08;1.85;;;;;;;14.63;100.00;100493.25;5177295;28;20096;-73
2022/10/16 07:24:27;;;;;;;3.72;1.70;;;;;;;15.13;100.00;100486.97;5177105;28;20022;-73
2022/10/16 07:26:57;;;;;;;3.50;2.00;;;;;;;16.94;100.00;100493.69;5182231;28;20563;-73
2022/10/16 07:29:27;;;;;;;2.95;1.33;;;;;;;18.53;100.00;100488.31;5171264;28;20085;-73
2022/10/16 07:31:58;;;;;;;1.50;1.10;;;;;;;18.86;100.00;100495.59;5179366;28;20050;-73
2022/10/16 07:34:28;;;;;;;2.45;0.95;;;;;;;20.72;92.67;100498.25;5170854;28;20060;-73
2022/10/16 07:36:58;;;;;;;1.02;0.65;;;;;;;21.39;83.17;100499.09;5181122;28;20017;-74
2022/10/16 07:39:29;;;;;;;1.20;0.63;;;;;;;20.93;86.31;100495.75;5181398;28;20092;-74
2022/10/16 07:41:59;;;;;;;1.77;0.80;;;;;;;21.32;84.04;100498.72;5181973;28;20041;-74
2022/10/16 07:44:29;;;;;;;1.90;0.70;;;;;;;22.21;79.59;100489.47;5181780;28;20774;-74
2022/10/16 07:46:59;;;;;;;3.13;0.70;;;;;;;21.49;83.10;100500.88;5176426;28;20284;-74
2022/10/16 07:49:30;;;;;;;1.50;0.60;;;;;;;21.24;86.73;100503.81;5180847;28;20384;-74
2022/10/16 07:52:00;;;;;;;2.90;0.82;;;;;;;22.18;83.42;100507.50;5176250;28;21114;-73
2022/10/16 07:54:30;;;;;;;2.58;0.68;;;;;;;22.84;80.61;100510.63;5174317;28;20080;-74
2022/10/16 07:57:01;;;;;;;1.42;0.55;;;;;;;22.85;79.53;100507.81;5179388;28;20029;-74
2022/10/16 07:59:31;;;;;;;3.33;1.10;;;;;;;22.61;78.42;100509.06;5180794;28;20381;-74
2022/10/16 08:02:01;;;;;;;3.63;1.70;;;;;;;23.13;77.42;100506.25;5175158;28;20376;-74
2022/10/16 08:04:31;;;;;;;3.67;1.60;;;;;;;22.82;78.00;100500.06;5172320;28;20288;-74
2022/10/16 08:07:02;;;;;;;3.07;0.50;;;;;;;22.50;78.21;100508.31;5173283;28;20034;-74
2022/10/16 08:09:32;;;;;;;1.65;0.52;;;;;;;21.16;85.93;100521.34;5173427;28;20666;-74
2022/10/16 08:12:03;;;;;;;3.47;1.00;;;;;;;21.97;81.53;100517.28;5177900;28;20033;-74
2022/10/16 08:14:34;;;;;;;2.75;1.20;;;;;;;21.72;84.19;100531.78;5161850;28;20089;-75
2022/10/16 08:17:04;;;;;;;4.73;1.10;;;;;;;21.62;81.59;100527.31;5178230;28;20025;-74
2022/10/16 08:19:34;;;;;;;2.42;0.85;;;;;;;22.17;83.33;100532.44;5180497;28;20299;-74
2022/10/16 08:22:05;;;;;;;2.53;0.73;;;;;;;22.40;79.92;100542.06;5162919;28;20460;-74
2022/10/16 08:24:36;;;;;;;3.03;0.63;;;;;;;23.27;76.54;100546.75;5179975;28;20458;-74
2022/10/16 08:27:08;;;;;;;1.67;0.73;;;;;;;22.61;77.97;100550.88;5161945;28;20323;-74
2022/10/16 08:29:39;;;;;;;3.75;0.60;;;;;;;23.47;77.17;100545.84;5181141;28;20026;-75
2022/10/16 08:32:09;;;;;;;1.50;0.70;;;;;;;23.33;76.60;100548.88;5174093;28;20410;-74
2022/10/16 08:34:39;;;;;;;1.98;0.90;;;;;;;24.01;73.44;100540.06;5172315;28;20113;-74
2022/10/16 08:37:12;;;;;;;5.63;0.90;;;;;;;24.44;71.83;100543.97;5180681;28;20309;-74
2022/10/16 08:39:42;;;;;;;2.00;0.80;;;;;;;23.89;74.62;100549.16;5180593;28;20277;-74
2022/10/16 08:42:35;;;;;;;2.00;0.60;;;;;;;23.05;74.84;100554.06;5181232;28;20046;-74
2022/10/16 08:45:42;;;;;;;5.72;0.63;;;;;;;22.43;78.48;100555.13;5178735;28;20033;-74
2022/10/16 08:48:45;;;;;;;5.78;0.82;;;;;;;21.68;82.61;100564.06;5154541;28;20049;-74
2022/10/16 08:51:26;;;;;;;3.83;0.80;;;;;;;20.86;84.83;100563.66;5179360;28;20072;-73
2022/10/16 08:53:59;;;;;;;3.17;0.70;;;;;;;20.32;88.30;100559.84;5170180;28;20023;-73
2022/10/16 08:56:30;;;;;;;3.15;0.70;;;;;;;20.41;88.16;100556.53;5174239;28;20022;-73
2022/10/16 08:59:00;;;;;;;4.20;1.00;;;;;;;19.71;89.75;100556.53;5180200;28;20368;-73
2022/10/16 09:01:40;;;;;;;2.88;0.98;;;;;;;19.74;90.67;100562.47;5177293;28;20025;-73
2022/10/16 09:04:32;;;;;;;1.67;0.88;;;;;;;19.62;92.06;100565.19;5170610;28;20033;-74
2022/10/16 09:07:19;;;;;;;1.45;0.60;;;;;;;19.23;92.32;100576.84;5178266;28;20041;-73
2022/10/16 09:09:58;;;;;;;2.40;0.77;;;;;;;19.16;93.56;100586.19;5176949;28;20038;-73
2022/10/16 09:12:39;;;;;;;1.70;0.52;;;;;;;18.71;95.97;100580.53;5180190;28;20546;-74
2022/10/16 09:15:44;;;;;;;3.13;0.73;;;;;;;19.09;96.08;100590.16;5178180;28;20045;-73
2022/10/16 09:18:30;;;;;;;3.70;0.88;;;;;;;18.98;94.99;100590.09;5177335;28;20049;-73
2022/10/16 09:21:39;;;;;;;1.73;0.32;;;;;;;19.30;93.26;100596.63;5175853;28;20053;-74
2022/10/16 09:24:14;;;;;;;2.10;0.57;;;;;;;19.10;93.55;100596.34;5123222;28;20511;-73
2022/10/16 09:26:47;;;;;;;1.58;0.40;;;;;;;19.12;92.50;100605.84;5155914;28;20551;-74
2022/10/16 09:29:24;;;;;;;0.70;0.40;;;;;;;19.42;93.79;100590.47;5179035;28;20034;-74
2022/10/16 09:32:06;;;;;;;0.93;0.40;;;;;;;19.57;93.13;100596.47;5176033;28;20192;-73
2022/10/16 09:34:42;;;;;;;1.60;0.35;;;;;;;19.73;90.62;100605.88;5177455;28;20029;-73
2022/10/16 09:37:17;;;;;;;2.40;0.50;;;;;;;19.46;89.52;100607.03;5179784;28;20180;-74
2022/10/16 09:39:50;;;;;;;3.35;0.90;;;;;;;19.64;90.53;100609.19;5177077;28;20514;-73
2022/10/16 09:42:27;;;;;;;2.30;0.88;;;;;;;19.70;90.19;100613.19;5177998;28;20221;-73
2022/10/16 09:44:57;;;;;;;1.27;0.52;;;;;;;19.55;90.14;100615.16;5179833;28;20053;-73
2022/10/16 09:47:30;;;;;;;0.80;0.47;;;;;;;19.79;89.74;100615.19;5179814;28;20119;-73
2022/10/16 09:50:23;;;;;;;2.15;0.45;;;;;;;20.00;90.18;100613.63;5176059;28;20037;-73
2022/10/16 09:53:04;;;;;;;2.30;0.60;;;;;;;19.98;89.10;100615.56;5172304;28;20704;-74
2022/10/16 09:55:35;;;;;;;1.02;0.40;;;;;;;19.65;88.57;100626.78;5169884;28;20132;-73
2022/10/16 09:58:13;;;;;;;2.47;0.50;;;;;;;19.63;89.22;100636.66;5175612;28;20053;-74
2022/10/16 10:00:53;;;;;;;2.72;0.80;;;;;;;19.79;89.24;100642.56;5177693;28;20084;-73
2022/10/16 10:03:35;;;;;;;3.75;0.60;;;;;;;19.89;89.41;100643.59;5170833;28;20034;-72
2022/10/16 10:06:17;;;;;;;1.80;0.38;;;;;;;19.84;89.57;100650.19;5176463;28;20056;-75
2022/10/16 10:09:05;;;;;;;2.22;0.35;;;;;;;19.79;89.33;100653.16;5174753;28;20565;-73
2022/10/16 10:11:48;;;;;;;2.67;0.60;;;;;;;19.71;88.91;100646.72;5177675;28;20045;-73
2022/10/16 10:14:51;;;;;;;1.08;0.55;;;;;;;19.69;89.83;100646.84;5173981;28;20447;-73
2022/10/16 10:17:23;;;;;;;2.25;0.60;;;;;;;19.54;90.41;100642.63;5167872;28;20050;-74
2022/10/16 10:19:56;;;;;;;3.92;0.52;;;;;;;19.50;90.06;100645.59;5178563;28;20036;-73
2022/10/16 10:22:30;;;;;;;1.10;0.30;;;;;;;19.74;92.07;100650.00;5178415;28;20042;-73
2022/10/16 10:25:12;;;;;;;1.48;0.60;;;;;;;19.59;88.28;100639.66;5169586;28;20258;-73
2022/10/16 10:27:57;;;;;;;0.63;0.40;;;;;;;19.40;88.77;100650.72;5176826;28;20084;-73
2022/10/16 10:31:10;;;;;;;1.73;0.50;;;;;;;19.24;88.91;100647.44;5176035;28;20030;-73
2022/10/16 10:33:56;;;;;;;1.33;0.70;;;;;;;19.21;87.49;100649.44;5172256;28;20108;-74
2022/10/16 10:36:38;;;;;;;0.90;0.40;;;;;;;19.19;87.17;100649.56;5174976;28;20399;-73
2022/10/16 10:39:40;;;;;;;2.35;1.15;;;;;;;18.97;87.46;100646.66;5180020;28;20040;-74
2022/10/16 10:42:35;;;;;;;1.48;0.57;;;;;;;19.07;89.97;100658.31;5180914;28;20129;-73
2022/10/16 10:45:18;;;;;;;7.00;0.80;;;;;;;19.02;88.53;100649.84;5180626;28;20160;-74
2022/10/16 10:47:54;;;;;;;4.70;0.60;;;;;;;18.76;87.48;100658.72;5179259;28;20049;-73
2022/10/16 10:50:30;;;;;;;2.50;0.55;;;;;;;18.73;86.90;100673.13;5164870;28;20040;-73
2022/10/16 10:53:30;;;;;;;;;;;;;;;18.73;87.73;100664.22;5180054;28;20033;-73
2022/10/16 10:56:27;;;;;;;2.17;0.65;;;;;;;18.70;87.39;100668.03;5155918;28;19957;-72
2022/10/16 10:59:25;;;;;;;6.07;0.60;;;;;;;18.71;87.21;100664.44;5178928;28;20038;-73
2022/10/16 11:01:58;;;;;;;2.50;0.60;;;;;;;18.75;87.91;100661.50;5176206;28;20376;-74
2022/10/16 11:05:08;;;;;;;2.42;0.52;;;;;;;18.79;88.33;100666.44;5176638;28;20049;-73
2022/10/16 11:07:47;;;;;;;2.67;0.50;;;;;;;18.72;86.50;100671.44;5160350;28;20041;-73
2022/10/16 11:10:24;;;;;;;3.55;0.57;;;;;;;18.81;85.80;100675.16;5178084;28;20038;-73
2022/10/16 11:13:01;;;;;;;1.15;0.50;;;;;;;18.76;84.82;100679.91;5181971;28;20049;-74
2022/10/16 11:15:37;;;;;;;1.73;0.47;;;;;;;19.12;84.24;100676.56;5182264;28;20028;-73
2022/10/16 11:18:17;;;;;;;1.77;0.50;;;;;;;19.11;85.07;100670.41;5179438;28;20081;-74
2022/10/16 11:20:53;;;;;;;1.98;0.43;;;;;;;19.42;86.27;100674.47;5181581;28;20022;-74
2022/10/16 11:23:33;;;;;;;2.78;0.40;;;;;;;19.48;84.05;100684.63;5162835;28;20496;-74
2022/10/16 11:26:11;;;;;;;4.07;0.50;;;;;;;19.57;81.40;100690.16;5180665;28;20030;-74
2022/10/16 11:28:48;;;;;;;1.38;0.35;;;;;;;19.48;81.09;100685.47;5181166;28;20583;-74
2022/10/16 11:31:31;;;;;;;2.30;0.40;;;;;;;19.33;82.02;100697.19;5161707;28;20483;-73
2022/10/16 11:34:21;;;;;;;4.72;0.63;;;;;;;19.38;83.94;100697.69;5179201;28;20041;-73
2022/10/16 11:36:58;;;;;;;1.77;0.30;;;;;;;19.18;82.76;100700.88;5180895;28;20025;-74
2022/10/16 11:39:30;;;;;;;1.85;0.40;;;;;;;19.13;81.60;100708.25;5181096;28;20060;-74
2022/10/16 11:42:11;;;;;;;1.02;0.32;;;;;;;19.09;82.03;100714.72;5181220;28;20026;-74
2022/10/16 11:45:06;;;;;;;0.98;0.38;;;;;;;18.95;82.45;100712.16;5180611;28;20030;-73
2022/10/16 11:48:00;;;;;;;2.17;0.52;;;;;;;19.06;82.91;100698.16;5178923;28;20087;-73
2022/10/16 11:50:40;;;;;;;1.58;0.50;;;;;;;19.08;81.80;100713.03;5179465;28;20034;-73
2022/10/16 11:53:14;;;;;;;1.75;0.30;;;;;;;18.91;82.55;100705.38;5179979;28;20119;-75
2022/10/16 11:55:46;;;;;;;1.40;0.40;;;;;;;18.92;81.21;100712.34;5179388;28;20105;-74